sensor_id;sensor_type;location;lat;lon;timestamp;P1;durP1;ratioP1;P2;durP2;ratioP2
11348;SDS011;5729;43.570;27.826;2022-12-18T00:01:03;7.78;;;6.18;;
11348;SDS011;5729;43.570;27.826;2022-12-18T00:03:34;8.32;;;6.10;;
11348;SDS011;5729;43.570;27.826;2022-12-18T00:06:00;10.48;;;6.82;;
11348;SDS011;5729;43.570;27.826;2022-12-18T00:08:27;7.45;;;5.90;;
11348;SDS011;5729;43.570;27.826;2022-12-18T00:10:53;8.95;;;6.75;;
11348;SDS011;5729;43.570;27.826;2022-12-18T00:13:18;10.68;;;6.38;;
11348;SDS011;5729;43.570;27.826;2022-12-18T00:15:44;9.13;;;6.00;;
11348;SDS011;5729;43.570;27.826;2022-12-18T00:18:09;11.77;;;6.95;;
11348;SDS011;5729;43.570;27.826;2022-12-18T00:20:36;12.07;;;8.40;;
11348;SDS011;5729;43.570;27.826;2022-12-18T00:23:02;9.60;;;6.75;;
11348;SDS011;5729;43.570;27.826;2022-12-18T00:25:27;9.25;;;6.63;;
11348;SDS011;5729;43.570;27.826;2022-12-18T00:27:53;11.13;;;7.85;;
11348;SDS011;5729;43.570;27.826;2022-12-18T00:30:18;10.15;;;7.20;;
11348;SDS011;5729;43.570;27.826;2022-12-18T00:32:43;7.22;;;5.25;;
11348;SDS011;5729;43.570;27.826;2022-12-18T00:35:09;6.05;;;5.40;;
11348;SDS011;5729;43.570;27.826;2022-12-18T00:37:34;5.65;;;4.80;;
11348;SDS011;5729;43.570;27.826;2022-12-18T00:40:00;8.02;;;5.57;;
11348;SDS011;5729;43.570;27.826;2022-12-18T00:42:25;6.80;;;5.50;;
11348;SDS011;5729;43.570;27.826;2022-12-18T00:45:09;6.57;;;5.32;;
11348;SDS011;5729;43.570;27.826;2022-12-18T00:47:35;6.50;;;5.10;;
11348;SDS011;5729;43.570;27.826;2022-12-18T00:50:00;6.07;;;4.93;;
11348;SDS011;5729;43.570;27.826;2022-12-18T00:52:25;7.13;;;5.63;;
11348;SDS011;5729;43.570;27.826;2022-12-18T00:54:51;6.38;;;4.50;;
11348;SDS011;5729;43.570;27.826;2022-12-18T00:57:16;5.97;;;4.78;;
11348;SDS011;5729;43.570;27.826;2022-12-18T00:59:42;6.70;;;5.03;;
11348;SDS011;5729;43.570;27.826;2022-12-18T01:02:07;6.35;;;4.68;;
11348;SDS011;5729;43.570;27.826;2022-12-18T01:04:33;6.85;;;5.25;;
11348;SDS011;5729;43.570;27.826;2022-12-18T01:06:58;6.28;;;4.60;;
11348;SDS011;5729;43.570;27.826;2022-12-18T01:09:24;6.63;;;4.75;;
11348;SDS011;5729;43.570;27.826;2022-12-18T01:11:49;5.93;;;4.75;;
11348;SDS011;5729;43.570;27.826;2022-12-18T01:14:15;5.50;;;4.70;;
11348;SDS011;5729;43.570;27.826;2022-12-18T01:16:40;6.18;;;4.93;;
11348;SDS011;5729;43.570;27.826;2022-12-18T01:19:06;6.07;;;4.88;;
11348;SDS011;5729;43.570;27.826;2022-12-18T01:21:31;5.80;;;4.60;;
11348;SDS011;5729;43.570;27.826;2022-12-18T01:23:57;6.15;;;5.13;;
11348;SDS011;5729;43.570;27.826;2022-12-18T01:26:23;5.43;;;4.55;;
11348;SDS011;5729;43.570;27.826;2022-12-18T01:28:49;6.72;;;5.00;;
11348;SDS011;5729;43.570;27.826;2022-12-18T01:33:40;5.45;;;4.47;;
11348;SDS011;5729;43.570;27.826;2022-12-18T01:36:06;7.68;;;4.10;;
11348;SDS011;5729;43.570;27.826;2022-12-18T01:38:31;6.10;;;4.68;;
11348;SDS011;5729;43.570;27.826;2022-12-18T01:40:57;5.05;;;4.53;;
11348;SDS011;5729;43.570;27.826;2022-12-18T01:43:40;5.93;;;4.82;;
11348;SDS011;5729;43.570;27.826;2022-12-18T01:46:08;5.65;;;4.72;;
11348;SDS011;5729;43.570;27.826;2022-12-18T01:48:34;7.22;;;5.47;;
11348;SDS011;5729;43.570;27.826;2022-12-18T01:50:59;7.00;;;5.07;;
11348;SDS011;5729;43.570;27.826;2022-12-18T01:53:25;6.75;;;4.97;;
11348;SDS011;5729;43.570;27.826;2022-12-18T01:55:57;6.93;;;5.43;;
11348;SDS011;5729;43.570;27.826;2022-12-18T01:58:35;6.78;;;5.45;;
11348;SDS011;5729;43.570;27.826;2022-12-18T02:01:09;6.30;;;5.05;;
11348;SDS011;5729;43.570;27.826;2022-12-18T02:03:35;5.57;;;4.93;;
11348;SDS011;5729;43.570;27.826;2022-12-18T02:06:20;7.22;;;5.53;;
11348;SDS011;5729;43.570;27.826;2022-12-18T02:14:04;7.28;;;5.97;;
11348;SDS011;5729;43.570;27.826;2022-12-18T02:27:37;7.40;;;6.00;;
11348;SDS011;5729;43.570;27.826;2022-12-18T02:30:04;8.57;;;5.88;;
11348;SDS011;5729;43.570;27.826;2022-12-18T02:32:43;8.02;;;5.93;;
11348;SDS011;5729;43.570;27.826;2022-12-18T02:35:15;8.70;;;6.03;;
11348;SDS011;5729;43.570;27.826;2022-12-18T02:37:45;6.32;;;5.22;;
11348;SDS011;5729;43.570;27.826;2022-12-18T02:40:12;7.05;;;5.13;;
11348;SDS011;5729;43.570;27.826;2022-12-18T02:42:40;7.72;;;4.75;;
11348;SDS011;5729;43.570;27.826;2022-12-18T02:45:06;6.80;;;5.30;;
11348;SDS011;5729;43.570;27.826;2022-12-18T02:47:32;7.15;;;5.45;;
11348;SDS011;5729;43.570;27.826;2022-12-18T02:50:06;6.47;;;5.28;;
11348;SDS011;5729;43.570;27.826;2022-12-18T02:57:56;7.03;;;5.20;;
11348;SDS011;5729;43.570;27.826;2022-12-18T03:00:50;7.45;;;5.50;;
11348;SDS011;5729;43.570;27.826;2022-12-18T03:03:40;7.63;;;5.40;;
11348;SDS011;5729;43.570;27.826;2022-12-18T03:06:14;7.68;;;5.22;;
11348;SDS011;5729;43.570;27.826;2022-12-18T03:09:04;6.53;;;5.03;;
11348;SDS011;5729;43.570;27.826;2022-12-18T03:11:34;6.88;;;5.03;;
11348;SDS011;5729;43.570;27.826;2022-12-18T03:14:22;8.43;;;4.93;;
11348;SDS011;5729;43.570;27.826;2022-12-18T03:16:50;6.88;;;5.10;;
11348;SDS011;5729;43.570;27.826;2022-12-18T03:19:21;7.00;;;5.35;;
11348;SDS011;5729;43.570;27.826;2022-12-18T03:21:49;7.18;;;5.47;;
11348;SDS011;5729;43.570;27.826;2022-12-18T03:24:19;7.80;;;5.63;;
11348;SDS011;5729;43.570;27.826;2022-12-18T03:26:47;7.95;;;6.00;;
11348;SDS011;5729;43.570;27.826;2022-12-18T03:29:17;7.25;;;5.63;;
11348;SDS011;5729;43.570;27.826;2022-12-18T03:31:49;6.90;;;5.45;;
11348;SDS011;5729;43.570;27.826;2022-12-18T03:34:23;7.43;;;5.85;;
11348;SDS011;5729;43.570;27.826;2022-12-18T03:36:54;7.75;;;6.07;;
11348;SDS011;5729;43.570;27.826;2022-12-18T03:39:19;7.43;;;5.95;;
11348;SDS011;5729;43.570;27.826;2022-12-18T03:44:47;9.50;;;6.57;;
11348;SDS011;5729;43.570;27.826;2022-12-18T03:52:37;9.50;;;6.57;;
11348;SDS011;5729;43.570;27.826;2022-12-18T03:55:07;10.15;;;7.20;;
11348;SDS011;5729;43.570;27.826;2022-12-18T03:57:34;8.45;;;6.43;;
11348;SDS011;5729;43.570;27.826;2022-12-18T04:00:03;9.63;;;6.40;;
11348;SDS011;5729;43.570;27.826;2022-12-18T04:02:34;11.77;;;6.55;;
11348;SDS011;5729;43.570;27.826;2022-12-18T04:05:02;9.00;;;6.28;;
11348;SDS011;5729;43.570;27.826;2022-12-18T04:07:30;9.98;;;6.95;;
11348;SDS011;5729;43.570;27.826;2022-12-18T04:09:56;10.07;;;6.82;;
11348;SDS011;5729;43.570;27.826;2022-12-18T04:12:25;11.13;;;7.13;;
11348;SDS011;5729;43.570;27.826;2022-12-18T04:14:53;10.80;;;7.45;;
11348;SDS011;5729;43.570;27.826;2022-12-18T04:17:19;11.57;;;7.40;;
11348;SDS011;5729;43.570;27.826;2022-12-18T04:19:44;11.23;;;7.93;;
11348;SDS011;5729;43.570;27.826;2022-12-18T04:22:10;11.27;;;7.00;;
11348;SDS011;5729;43.570;27.826;2022-12-18T04:24:35;11.17;;;7.57;;
11348;SDS011;5729;43.570;27.826;2022-12-18T04:27:01;11.00;;;7.53;;
11348;SDS011;5729;43.570;27.826;2022-12-18T04:29:27;11.33;;;7.63;;
11348;SDS011;5729;43.570;27.826;2022-12-18T04:31:53;25.87;;;14.57;;
11348;SDS011;5729;43.570;27.826;2022-12-18T04:34:19;13.07;;;8.13;;
11348;SDS011;5729;43.570;27.826;2022-12-18T04:36:45;13.70;;;8.90;;
11348;SDS011;5729;43.570;27.826;2022-12-18T04:39:11;14.97;;;8.90;;
11348;SDS011;5729;43.570;27.826;2022-12-18T04:41:36;17.30;;;10.18;;
11348;SDS011;5729;43.570;27.826;2022-12-18T04:44:02;12.13;;;8.80;;
11348;SDS011;5729;43.570;27.826;2022-12-18T04:46:27;12.35;;;8.88;;
11348;SDS011;5729;43.570;27.826;2022-12-18T04:48:53;15.82;;;10.02;;
11348;SDS011;5729;43.570;27.826;2022-12-18T04:51:18;15.90;;;10.00;;
11348;SDS011;5729;43.570;27.826;2022-12-18T04:53:43;16.23;;;10.50;;
11348;SDS011;5729;43.570;27.826;2022-12-18T04:56:10;13.93;;;9.37;;
11348;SDS011;5729;43.570;27.826;2022-12-18T04:58:38;12.83;;;9.00;;
11348;SDS011;5729;43.570;27.826;2022-12-18T05:01:05;14.85;;;9.75;;
11348;SDS011;5729;43.570;27.826;2022-12-18T05:03:32;17.35;;;10.48;;
11348;SDS011;5729;43.570;27.826;2022-12-18T05:05:58;15.38;;;10.13;;
11348;SDS011;5729;43.570;27.826;2022-12-18T05:08:24;18.60;;;11.03;;
11348;SDS011;5729;43.570;27.826;2022-12-18T05:10:49;13.57;;;9.83;;
11348;SDS011;5729;43.570;27.826;2022-12-18T05:13:28;15.57;;;10.20;;
11348;SDS011;5729;43.570;27.826;2022-12-18T05:15:54;16.97;;;12.03;;
11348;SDS011;5729;43.570;27.826;2022-12-18T05:18:20;18.60;;;11.93;;
11348;SDS011;5729;43.570;27.826;2022-12-18T05:20:45;20.63;;;12.30;;
11348;SDS011;5729;43.570;27.826;2022-12-18T05:23:11;21.47;;;12.57;;
11348;SDS011;5729;43.570;27.826;2022-12-18T05:25:36;19.50;;;12.53;;
11348;SDS011;5729;43.570;27.826;2022-12-18T05:28:02;25.50;;;14.37;;
11348;SDS011;5729;43.570;27.826;2022-12-18T05:30:27;24.13;;;14.07;;
11348;SDS011;5729;43.570;27.826;2022-12-18T05:32:53;21.57;;;13.63;;
11348;SDS011;5729;43.570;27.826;2022-12-18T05:35:18;25.40;;;14.87;;
11348;SDS011;5729;43.570;27.826;2022-12-18T05:37:44;21.30;;;13.13;;
11348;SDS011;5729;43.570;27.826;2022-12-18T05:40:10;26.17;;;15.77;;
11348;SDS011;5729;43.570;27.826;2022-12-18T05:42:36;20.73;;;13.37;;
11348;SDS011;5729;43.570;27.826;2022-12-18T05:45:02;25.63;;;14.93;;
11348;SDS011;5729;43.570;27.826;2022-12-18T05:47:28;23.07;;;14.70;;
11348;SDS011;5729;43.570;27.826;2022-12-18T05:49:54;22.63;;;14.33;;
11348;SDS011;5729;43.570;27.826;2022-12-18T05:52:20;23.00;;;14.43;;
11348;SDS011;5729;43.570;27.826;2022-12-18T05:54:45;25.33;;;15.73;;
11348;SDS011;5729;43.570;27.826;2022-12-18T05:57:12;26.00;;;13.27;;
11348;SDS011;5729;43.570;27.826;2022-12-18T05:59:37;30.73;;;15.97;;
11348;SDS011;5729;43.570;27.826;2022-12-18T06:02:03;26.00;;;16.60;;
11348;SDS011;5729;43.570;27.826;2022-12-18T06:04:28;26.87;;;16.47;;
11348;SDS011;5729;43.570;27.826;2022-12-18T06:06:55;24.43;;;15.70;;
11348;SDS011;5729;43.570;27.826;2022-12-18T06:09:20;27.43;;;16.57;;
11348;SDS011;5729;43.570;27.826;2022-12-18T06:11:46;30.77;;;18.57;;
11348;SDS011;5729;43.570;27.826;2022-12-18T06:14:11;32.97;;;17.97;;
11348;SDS011;5729;43.570;27.826;2022-12-18T06:16:37;29.15;;;16.50;;
11348;SDS011;5729;43.570;27.826;2022-12-18T06:19:03;34.10;;;19.23;;
11348;SDS011;5729;43.570;27.826;2022-12-18T06:21:29;29.43;;;18.17;;
11348;SDS011;5729;43.570;27.826;2022-12-18T06:23:56;33.37;;;18.87;;
11348;SDS011;5729;43.570;27.826;2022-12-18T06:26:23;33.33;;;18.47;;
11348;SDS011;5729;43.570;27.826;2022-12-18T06:28:49;36.13;;;20.33;;
11348;SDS011;5729;43.570;27.826;2022-12-18T06:31:14;32.93;;;18.40;;
11348;SDS011;5729;43.570;27.826;2022-12-18T06:33:40;31.93;;;18.53;;
11348;SDS011;5729;43.570;27.826;2022-12-18T06:36:06;36.23;;;20.93;;
11348;SDS011;5729;43.570;27.826;2022-12-18T06:38:37;31.93;;;18.63;;
11348;SDS011;5729;43.570;27.826;2022-12-18T06:41:06;32.90;;;19.57;;
11348;SDS011;5729;43.570;27.826;2022-12-18T06:43:35;33.93;;;18.50;;
11348;SDS011;5729;43.570;27.826;2022-12-18T06:46:01;31.23;;;17.73;;
11348;SDS011;5729;43.570;27.826;2022-12-18T06:48:28;36.07;;;18.77;;
11348;SDS011;5729;43.570;27.826;2022-12-18T06:50:54;32.77;;;19.43;;
11348;SDS011;5729;43.570;27.826;2022-12-18T06:53:20;33.00;;;19.00;;
11348;SDS011;5729;43.570;27.826;2022-12-18T06:55:45;32.03;;;18.60;;
11348;SDS011;5729;43.570;27.826;2022-12-18T06:58:10;32.77;;;18.90;;
11348;SDS011;5729;43.570;27.826;2022-12-18T07:00:36;31.23;;;18.98;;
11348;SDS011;5729;43.570;27.826;2022-12-18T07:03:01;33.45;;;20.13;;
11348;SDS011;5729;43.570;27.826;2022-12-18T07:05:27;31.52;;;19.63;;
11348;SDS011;5729;43.570;27.826;2022-12-18T07:07:52;34.70;;;21.07;;
11348;SDS011;5729;43.570;27.826;2022-12-18T07:10:18;34.10;;;20.53;;
11348;SDS011;5729;43.570;27.826;2022-12-18T07:12:43;34.33;;;19.93;;
11348;SDS011;5729;43.570;27.826;2022-12-18T07:15:09;36.43;;;21.87;;
11348;SDS011;5729;43.570;27.826;2022-12-18T07:17:34;35.87;;;19.40;;
11348;SDS011;5729;43.570;27.826;2022-12-18T07:20:00;35.83;;;20.37;;
11348;SDS011;5729;43.570;27.826;2022-12-18T07:22:25;35.30;;;20.77;;
11348;SDS011;5729;43.570;27.826;2022-12-18T07:24:51;31.70;;;19.23;;
11348;SDS011;5729;43.570;27.826;2022-12-18T07:27:16;36.97;;;19.10;;
11348;SDS011;5729;43.570;27.826;2022-12-18T07:29:42;31.80;;;19.47;;
11348;SDS011;5729;43.570;27.826;2022-12-18T07:32:07;34.37;;;20.03;;
11348;SDS011;5729;43.570;27.826;2022-12-18T07:34:33;37.23;;;21.40;;
11348;SDS011;5729;43.570;27.826;2022-12-18T07:36:59;38.60;;;21.03;;
11348;SDS011;5729;43.570;27.826;2022-12-18T07:39:24;34.77;;;20.80;;
11348;SDS011;5729;43.570;27.826;2022-12-18T07:41:49;45.10;;;22.70;;
11348;SDS011;5729;43.570;27.826;2022-12-18T07:44:34;35.83;;;21.67;;
11348;SDS011;5729;43.570;27.826;2022-12-18T07:46:59;34.47;;;20.77;;
11348;SDS011;5729;43.570;27.826;2022-12-18T07:49:25;36.37;;;21.53;;
11348;SDS011;5729;43.570;27.826;2022-12-18T07:51:50;42.40;;;24.67;;
11348;SDS011;5729;43.570;27.826;2022-12-18T07:54:15;46.20;;;26.07;;
11348;SDS011;5729;43.570;27.826;2022-12-18T07:56:41;43.13;;;26.80;;
11348;SDS011;5729;43.570;27.826;2022-12-18T07:59:06;37.20;;;21.27;;
11348;SDS011;5729;43.570;27.826;2022-12-18T08:01:32;39.13;;;22.87;;
11348;SDS011;5729;43.570;27.826;2022-12-18T08:03:58;43.70;;;25.97;;
11348;SDS011;5729;43.570;27.826;2022-12-18T08:06:24;40.50;;;23.37;;
11348;SDS011;5729;43.570;27.826;2022-12-18T08:08:52;38.50;;;22.43;;
11348;SDS011;5729;43.570;27.826;2022-12-18T08:11:19;35.83;;;21.53;;
11348;SDS011;5729;43.570;27.826;2022-12-18T08:13:45;37.37;;;22.63;;
11348;SDS011;5729;43.570;27.826;2022-12-18T08:16:10;35.67;;;21.07;;
11348;SDS011;5729;43.570;27.826;2022-12-18T08:18:36;34.90;;;20.70;;
11348;SDS011;5729;43.570;27.826;2022-12-18T08:21:15;33.63;;;21.10;;
11348;SDS011;5729;43.570;27.826;2022-12-18T08:23:43;39.20;;;21.13;;
11348;SDS011;5729;43.570;27.826;2022-12-18T08:26:09;38.10;;;21.20;;
11348;SDS011;5729;43.570;27.826;2022-12-18T08:28:35;35.27;;;21.50;;
11348;SDS011;5729;43.570;27.826;2022-12-18T08:31:00;36.93;;;20.63;;
11348;SDS011;5729;43.570;27.826;2022-12-18T08:33:26;36.07;;;19.30;;
11348;SDS011;5729;43.570;27.826;2022-12-18T08:35:52;31.40;;;19.43;;
11348;SDS011;5729;43.570;27.826;2022-12-18T08:38:18;33.10;;;20.47;;
11348;SDS011;5729;43.570;27.826;2022-12-18T08:40:43;32.50;;;19.53;;
11348;SDS011;5729;43.570;27.826;2022-12-18T08:43:09;35.97;;;20.07;;
11348;SDS011;5729;43.570;27.826;2022-12-18T08:45:54;33.20;;;18.33;;
11348;SDS011;5729;43.570;27.826;2022-12-18T08:48:20;32.27;;;19.53;;
11348;SDS011;5729;43.570;27.826;2022-12-18T08:50:55;31.67;;;18.77;;
11348;SDS011;5729;43.570;27.826;2022-12-18T08:53:21;34.47;;;19.53;;
11348;SDS011;5729;43.570;27.826;2022-12-18T08:55:49;33.27;;;19.00;;
11348;SDS011;5729;43.570;27.826;2022-12-18T08:58:15;35.90;;;19.90;;
11348;SDS011;5729;43.570;27.826;2022-12-18T09:00:40;31.00;;;18.37;;
11348;SDS011;5729;43.570;27.826;2022-12-18T09:03:10;36.30;;;20.70;;
11348;SDS011;5729;43.570;27.826;2022-12-18T09:05:39;34.90;;;20.10;;
11348;SDS011;5729;43.570;27.826;2022-12-18T09:08:05;35.97;;;19.53;;
11348;SDS011;5729;43.570;27.826;2022-12-18T09:10:31;33.70;;;18.83;;
11348;SDS011;5729;43.570;27.826;2022-12-18T09:12:57;36.60;;;21.10;;
11348;SDS011;5729;43.570;27.826;2022-12-18T09:15:22;34.83;;;20.40;;
11348;SDS011;5729;43.570;27.826;2022-12-18T09:17:48;42.50;;;23.60;;
11348;SDS011;5729;43.570;27.826;2022-12-18T09:20:15;32.57;;;20.33;;
11348;SDS011;5729;43.570;27.826;2022-12-18T09:22:41;41.07;;;22.33;;
11348;SDS011;5729;43.570;27.826;2022-12-18T09:25:06;37.03;;;21.23;;
11348;SDS011;5729;43.570;27.826;2022-12-18T09:27:35;34.97;;;21.13;;
11348;SDS011;5729;43.570;27.826;2022-12-18T09:30:00;36.83;;;22.50;;
11348;SDS011;5729;43.570;27.826;2022-12-18T09:32:26;38.33;;;22.07;;
11348;SDS011;5729;43.570;27.826;2022-12-18T09:34:51;43.17;;;23.50;;
11348;SDS011;5729;43.570;27.826;2022-12-18T09:37:17;35.97;;;21.13;;
11348;SDS011;5729;43.570;27.826;2022-12-18T09:39:42;33.00;;;20.93;;
11348;SDS011;5729;43.570;27.826;2022-12-18T09:42:09;39.20;;;24.17;;
11348;SDS011;5729;43.570;27.826;2022-12-18T09:44:45;44.30;;;25.27;;
11348;SDS011;5729;43.570;27.826;2022-12-18T09:47:19;38.10;;;21.93;;
11348;SDS011;5729;43.570;27.826;2022-12-18T09:49:58;46.20;;;25.53;;
11348;SDS011;5729;43.570;27.826;2022-12-18T09:52:35;48.37;;;29.03;;
11348;SDS011;5729;43.570;27.826;2022-12-18T09:55:11;37.57;;;22.23;;
11348;SDS011;5729;43.570;27.826;2022-12-18T09:57:44;42.13;;;24.67;;
11348;SDS011;5729;43.570;27.826;2022-12-18T10:00:20;37.13;;;22.20;;
11348;SDS011;5729;43.570;27.826;2022-12-18T10:02:47;40.28;;;21.77;;
11348;SDS011;5729;43.570;27.826;2022-12-18T10:05:15;42.03;;;23.53;;
11348;SDS011;5729;43.570;27.826;2022-12-18T10:07:50;38.63;;;21.63;;
11348;SDS011;5729;43.570;27.826;2022-12-18T10:10:34;36.80;;;21.33;;
11348;SDS011;5729;43.570;27.826;2022-12-18T10:13:09;41.08;;;23.58;;
11348;SDS011;5729;43.570;27.826;2022-12-18T10:21:34;41.63;;;23.20;;
11348;SDS011;5729;43.570;27.826;2022-12-18T10:24:20;39.97;;;23.58;;
11348;SDS011;5729;43.570;27.826;2022-12-18T10:26:54;50.00;;;29.77;;
11348;SDS011;5729;43.570;27.826;2022-12-18T10:29:25;44.00;;;25.23;;
11348;SDS011;5729;43.570;27.826;2022-12-18T10:31:50;42.40;;;23.50;;
11348;SDS011;5729;43.570;27.826;2022-12-18T10:34:16;48.13;;;27.45;;
11348;SDS011;5729;43.570;27.826;2022-12-18T10:36:41;54.60;;;31.23;;
11348;SDS011;5729;43.570;27.826;2022-12-18T10:39:25;41.38;;;22.92;;
11348;SDS011;5729;43.570;27.826;2022-12-18T10:41:51;36.85;;;22.52;;
11348;SDS011;5729;43.570;27.826;2022-12-18T10:44:20;34.93;;;20.03;;
11348;SDS011;5729;43.570;27.826;2022-12-18T10:46:48;41.55;;;21.70;;
11348;SDS011;5729;43.570;27.826;2022-12-18T10:49:19;38.13;;;21.83;;
11348;SDS011;5729;43.570;27.826;2022-12-18T10:51:50;38.20;;;20.93;;
11348;SDS011;5729;43.570;27.826;2022-12-18T10:54:28;31.15;;;18.70;;
11348;SDS011;5729;43.570;27.826;2022-12-18T10:57:13;32.17;;;19.33;;
11348;SDS011;5729;43.570;27.826;2022-12-18T11:00:18;38.50;;;20.97;;
11348;SDS011;5729;43.570;27.826;2022-12-18T11:02:43;37.20;;;20.67;;
11348;SDS011;5729;43.570;27.826;2022-12-18T11:05:29;41.27;;;23.00;;
11348;SDS011;5729;43.570;27.826;2022-12-18T11:07:56;92.40;;;56.63;;
11348;SDS011;5729;43.570;27.826;2022-12-18T11:10:33;45.47;;;27.90;;
11348;SDS011;5729;43.570;27.826;2022-12-18T11:15:37;33.05;;;19.52;;
11348;SDS011;5729;43.570;27.826;2022-12-18T11:18:14;36.33;;;18.80;;
11348;SDS011;5729;43.570;27.826;2022-12-18T11:21:09;34.10;;;19.20;;
11348;SDS011;5729;43.570;27.826;2022-12-18T11:23:43;31.70;;;18.17;;
11348;SDS011;5729;43.570;27.826;2022-12-18T11:26:19;28.63;;;17.05;;
11348;SDS011;5729;43.570;27.826;2022-12-18T11:28:47;33.40;;;20.10;;
11348;SDS011;5729;43.570;27.826;2022-12-18T11:31:26;25.05;;;15.43;;
11348;SDS011;5729;43.570;27.826;2022-12-18T11:36:36;21.47;;;14.60;;
11348;SDS011;5729;43.570;27.826;2022-12-18T11:39:09;24.92;;;13.57;;
11348;SDS011;5729;43.570;27.826;2022-12-18T11:42:04;20.90;;;13.68;;
11348;SDS011;5729;43.570;27.826;2022-12-18T11:47:34;24.15;;;13.82;;
11348;SDS011;5729;43.570;27.826;2022-12-18T11:50:10;14.02;;;9.23;;
11348;SDS011;5729;43.570;27.826;2022-12-18T11:52:40;11.32;;;8.65;;
11348;SDS011;5729;43.570;27.826;2022-12-18T11:55:13;11.35;;;7.90;;
11348;SDS011;5729;43.570;27.826;2022-12-18T12:00:21;34.28;;;21.35;;
11348;SDS011;5729;43.570;27.826;2022-12-18T12:08:17;10.02;;;7.80;;
11348;SDS011;5729;43.570;27.826;2022-12-18T12:16:18;10.45;;;7.75;;
11348;SDS011;5729;43.570;27.826;2022-12-18T12:21:47;12.90;;;9.50;;
11348;SDS011;5729;43.570;27.826;2022-12-18T12:29:50;12.82;;;8.05;;
11348;SDS011;5729;43.570;27.826;2022-12-18T12:32:42;10.50;;;7.70;;
11348;SDS011;5729;43.570;27.826;2022-12-18T12:35:31;13.60;;;8.52;;
11348;SDS011;5729;43.570;27.826;2022-12-18T12:38:34;10.23;;;8.07;;
11348;SDS011;5729;43.570;27.826;2022-12-18T12:41:12;10.70;;;7.80;;
11348;SDS011;5729;43.570;27.826;2022-12-18T12:44:01;13.98;;;8.35;;
11348;SDS011;5729;43.570;27.826;2022-12-18T12:46:32;11.85;;;8.35;;
11348;SDS011;5729;43.570;27.826;2022-12-18T12:49:04;9.45;;;7.45;;
11348;SDS011;5729;43.570;27.826;2022-12-18T12:52:32;16.70;;;8.73;;
11348;SDS011;5729;43.570;27.826;2022-12-18T12:54:37;15.52;;;10.95;;
11348;SDS011;5729;43.570;27.826;2022-12-18T13:08:10;15.02;;;10.73;;
11348;SDS011;5729;43.570;27.826;2022-12-18T13:10:38;12.80;;;9.60;;
11348;SDS011;5729;43.570;27.826;2022-12-18T13:13:09;12.20;;;8.73;;
11348;SDS011;5729;43.570;27.826;2022-12-18T13:16:20;11.90;;;8.52;;
11348;SDS011;5729;43.570;27.826;2022-12-18T13:18:30;13.27;;;9.70;;
11348;SDS011;5729;43.570;27.826;2022-12-18T13:25:57;15.77;;;11.13;;
11348;SDS011;5729;43.570;27.826;2022-12-18T13:31:10;12.55;;;9.05;;
11348;SDS011;5729;43.570;27.826;2022-12-18T13:33:45;14.40;;;10.65;;
11348;SDS011;5729;43.570;27.826;2022-12-18T13:38:39;16.05;;;10.95;;
11348;SDS011;5729;43.570;27.826;2022-12-18T13:43:43;14.47;;;10.37;;
11348;SDS011;5729;43.570;27.826;2022-12-18T13:51:47;16.52;;;10.18;;
11348;SDS011;5729;43.570;27.826;2022-12-18T13:57:05;18.77;;;13.57;;
11348;SDS011;5729;43.570;27.826;2022-12-18T13:59:50;17.30;;;14.00;;
11348;SDS011;5729;43.570;27.826;2022-12-18T14:02:26;13.00;;;10.23;;
11348;SDS011;5729;43.570;27.826;2022-12-18T14:04:53;14.60;;;10.30;;
11348;SDS011;5729;43.570;27.826;2022-12-18T14:07:23;17.90;;;12.73;;
11348;SDS011;5729;43.570;27.826;2022-12-18T14:09:51;12.27;;;9.97;;
11348;SDS011;5729;43.570;27.826;2022-12-18T14:12:22;16.67;;;10.80;;
11348;SDS011;5729;43.570;27.826;2022-12-18T14:15:42;16.33;;;11.30;;
11348;SDS011;5729;43.570;27.826;2022-12-18T14:20:58;12.40;;;10.47;;
11348;SDS011;5729;43.570;27.826;2022-12-18T14:25:57;14.83;;;10.87;;
11348;SDS011;5729;43.570;27.826;2022-12-18T14:28:23;19.63;;;14.00;;
11348;SDS011;5729;43.570;27.826;2022-12-18T14:30:48;16.00;;;11.83;;
11348;SDS011;5729;43.570;27.826;2022-12-18T14:33:20;28.37;;;18.10;;
11348;SDS011;5729;43.570;27.826;2022-12-18T14:43:29;21.33;;;14.50;;
11348;SDS011;5729;43.570;27.826;2022-12-18T14:45:57;17.50;;;11.87;;
11348;SDS011;5729;43.570;27.826;2022-12-18T14:48:42;15.97;;;11.13;;
11348;SDS011;5729;43.570;27.826;2022-12-18T14:51:15;20.87;;;14.60;;
11348;SDS011;5729;43.570;27.826;2022-12-18T14:53:44;20.27;;;14.13;;
11348;SDS011;5729;43.570;27.826;2022-12-18T14:56:21;19.70;;;13.53;;
11348;SDS011;5729;43.570;27.826;2022-12-18T14:58:54;26.77;;;17.17;;
11348;SDS011;5729;43.570;27.826;2022-12-18T15:01:27;24.90;;;16.20;;
11348;SDS011;5729;43.570;27.826;2022-12-18T15:03:55;20.00;;;13.30;;
11348;SDS011;5729;43.570;27.826;2022-12-18T15:06:34;21.27;;;14.57;;
11348;SDS011;5729;43.570;27.826;2022-12-18T15:09:21;26.03;;;14.53;;
11348;SDS011;5729;43.570;27.826;2022-12-18T15:11:48;19.83;;;13.40;;
11348;SDS011;5729;43.570;27.826;2022-12-18T15:14:30;18.37;;;12.87;;
11348;SDS011;5729;43.570;27.826;2022-12-18T15:16:56;16.20;;;11.57;;
11348;SDS011;5729;43.570;27.826;2022-12-18T15:19:37;16.47;;;12.17;;
11348;SDS011;5729;43.570;27.826;2022-12-18T15:22:12;18.40;;;13.20;;
11348;SDS011;5729;43.570;27.826;2022-12-18T15:24:42;21.33;;;12.10;;
11348;SDS011;5729;43.570;27.826;2022-12-18T15:27:19;20.13;;;12.43;;
11348;SDS011;5729;43.570;27.826;2022-12-18T15:32:38;30.73;;;18.17;;
11348;SDS011;5729;43.570;27.826;2022-12-18T15:35:22;19.00;;;12.70;;
11348;SDS011;5729;43.570;27.826;2022-12-18T15:37:50;19.52;;;13.23;;
11348;SDS011;5729;43.570;27.826;2022-12-18T15:40:23;21.60;;;15.40;;
11348;SDS011;5729;43.570;27.826;2022-12-18T15:42:49;24.27;;;15.65;;
11348;SDS011;5729;43.570;27.826;2022-12-18T15:45:37;25.80;;;15.80;;
11348;SDS011;5729;43.570;27.826;2022-12-18T15:48:07;27.40;;;18.67;;
11348;SDS011;5729;43.570;27.826;2022-12-18T15:50:46;20.27;;;13.37;;
11348;SDS011;5729;43.570;27.826;2022-12-18T15:53:11;22.63;;;14.87;;
11348;SDS011;5729;43.570;27.826;2022-12-18T15:55:37;25.93;;;18.40;;
11348;SDS011;5729;43.570;27.826;2022-12-18T15:58:21;33.70;;;22.57;;
11348;SDS011;5729;43.570;27.826;2022-12-18T16:00:46;34.00;;;19.43;;
11348;SDS011;5729;43.570;27.826;2022-12-18T16:03:12;34.10;;;21.27;;
11348;SDS011;5729;43.570;27.826;2022-12-18T16:05:37;29.17;;;18.60;;
11348;SDS011;5729;43.570;27.826;2022-12-18T16:08:03;25.27;;;16.47;;
11348;SDS011;5729;43.570;27.826;2022-12-18T16:10:28;36.70;;;23.57;;
11348;SDS011;5729;43.570;27.826;2022-12-18T16:12:54;29.57;;;20.60;;
11348;SDS011;5729;43.570;27.826;2022-12-18T16:15:19;26.07;;;16.90;;
11348;SDS011;5729;43.570;27.826;2022-12-18T16:17:45;25.67;;;16.40;;
11348;SDS011;5729;43.570;27.826;2022-12-18T16:20:13;23.93;;;15.07;;
11348;SDS011;5729;43.570;27.826;2022-12-18T16:22:43;22.97;;;13.93;;
11348;SDS011;5729;43.570;27.826;2022-12-18T16:25:16;22.53;;;14.77;;
11348;SDS011;5729;43.570;27.826;2022-12-18T16:27:50;24.73;;;15.30;;
11348;SDS011;5729;43.570;27.826;2022-12-18T16:30:21;28.57;;;15.67;;
11348;SDS011;5729;43.570;27.826;2022-12-18T16:32:49;25.20;;;15.93;;
11348;SDS011;5729;43.570;27.826;2022-12-18T16:35:15;23.43;;;13.50;;
11348;SDS011;5729;43.570;27.826;2022-12-18T16:37:41;22.57;;;14.00;;
11348;SDS011;5729;43.570;27.826;2022-12-18T16:40:08;22.80;;;13.27;;